Time;durP1;ratioP1;P1;durP2;ratioP2;P2;SDS_P1;SDS_P2;PMS_P1;PMS_P2;Temp;Humidity;BMP_temperature;BMP_pressure;BME280_temperature;BME280_humidity;BME280_pressure;Samples;Min_cycle;Max_cycle;Signal;HPM_P1;HPM_P2
2022/11/15 00:01:49;;;;;;;23.35;14.45;;;;;;;12.45;59.27;100744.25;5072297;28;20072;-71
2022/11/15 00:04:34;;;;;;;21.83;15.15;;;;;;;12.47;59.43;100745.00;5072247;28;20055;-71
2022/11/15 00:07:20;;;;;;;20.55;14.40;;;;;;;12.49;59.50;100734.94;5072689;28;20055;-71
2022/11/15 00:10:25;;;;;;;24.60;15.48;;;;;;;12.55;59.48;100738.97;5053462;28;20510;-71
2022/11/15 00:13:11;;;;;;;24.60;15.43;;;;;;;12.57;59.43;100735.19;5053528;28;20059;-71
2022/11/15 00:15:58;;;;;;;24.10;15.65;;;;;;;12.61;59.72;100735.78;5054789;28;20526;-70
2022/11/15 00:18:43;;;;;;;23.48;15.68;;;;;;;12.65;59.75;100734.59;5073493;28;20047;-71
2022/11/15 00:21:35;;;;;;;24.67;16.77;;;;;;;12.71;59.95;100734.94;5073971;27;20052;-71
2022/11/15 00:24:29;;;;;;;25.77;15.93;;;;;;;12.76;60.03;100739.09;5073404;28;20052;-72
2022/11/15 00:27:13;;;;;;;27.58;16.17;;;;;;;12.82;60.23;100734.06;5073686;28;20059;-71
2022/11/15 00:29:58;;;;;;;26.45;16.98;;;;;;;12.85;60.19;100735.66;5074273;28;20081;-71
2022/11/15 00:32:43;;;;;;;27.20;16.80;;;;;;;12.86;60.09;100724.75;5074156;28;20129;-71
2022/11/15 00:35:33;;;;;;;21.77;14.75;;;;;;;12.89;60.30;100729.03;5074282;28;20102;-71
2022/11/15 00:38:19;;;;;;;19.48;14.48;;;;;;;12.92;60.13;100721.53;5073544;28;20063;-72
2022/11/15 00:41:05;;;;;;;21.52;15.05;;;;;;;12.93;60.11;100720.56;5073154;28;20426;-72
2022/11/15 00:43:53;;;;;;;23.30;15.23;;;;;;;12.97;60.17;100721.16;5073077;28;20048;-71
2022/11/15 00:46:43;;;;;;;21.47;14.23;;;;;;;12.99;60.16;100716.50;5073379;28;20421;-72
2022/11/15 00:49:28;;;;;;;20.67;14.68;;;;;;;13.00;60.52;100713.66;5072914;28;20098;-72
2022/11/15 00:52:13;;;;;;;22.97;15.73;;;;;;;13.04;60.42;100714.28;5073288;28;20051;-71
2022/11/15 00:54:58;;;;;;;24.90;14.77;;;;;;;13.05;60.57;100716.84;5073444;28;20074;-71
2022/11/15 00:57:44;;;;;;;23.52;15.70;;;;;;;13.09;60.36;100713.88;5073358;28;20571;-71
2022/11/15 01:00:29;;;;;;;19.83;13.63;;;;;;;13.11;60.32;100704.69;5074197;28;20125;-72
2022/11/15 01:03:15;;;;;;;20.48;14.85;;;;;;;13.11;60.61;100709.22;5073640;28;20159;-72
2022/11/15 01:06:02;;;;;;;20.48;14.32;;;;;;;13.10;60.31;100713.75;5074115;28;20147;-72
2022/11/15 01:08:47;;;;;;;18.60;13.93;;;;;;;13.13;60.32;100701.84;5074043;28;20171;-72
2022/11/15 01:11:32;;;;;;;23.83;15.53;;;;;;;13.15;60.59;100703.44;5073416;28;20183;-72
2022/11/15 01:14:21;;;;;;;21.02;14.18;;;;;;;13.19;60.60;100704.94;5073760;28;20101;-72
2022/11/15 01:17:10;;;;;;;21.80;14.98;;;;;;;13.21;60.55;100705.66;5079951;28;20060;-72
2022/11/15 01:19:55;;;;;;;20.90;14.18;;;;;;;13.23;60.37;100703.69;5074126;28;20067;-71
2022/11/15 01:22:40;;;;;;;18.92;14.23;;;;;;;13.26;60.44;100698.03;5071147;28;20488;-71
2022/11/15 01:25:30;;;;;;;17.90;14.00;;;;;;;13.27;60.67;100698.88;5076289;28;20151;-71
2022/11/15 01:28:15;;;;;;;21.83;14.75;;;;;;;13.28;60.91;100693.38;5076977;28;20056;-70
2022/11/15 01:31:02;;;;;;;18.85;13.95;;;;;;;13.28;60.66;100696.06;5076680;28;20522;-71
2022/11/15 01:33:48;;;;;;;17.92;14.30;;;;;;;13.30;60.66;100683.31;5076560;28;20055;-71
2022/11/15 01:36:36;;;;;;;19.65;13.75;;;;;;;13.34;60.76;100681.19;5076834;28;20051;-71
2022/11/15 01:39:21;;;;;;;20.17;14.75;;;;;;;13.35;60.69;100680.22;5076421;28;20063;-71
2022/11/15 01:42:12;;;;;;;20.40;14.32;;;;;;;13.35;60.99;100680.22;5076441;28;20071;-71
2022/11/15 01:44:58;;;;;;;20.27;13.95;;;;;;;13.38;61.15;100674.59;5076174;28;20048;-71
2022/11/15 01:47:51;;;;;;;20.75;14.73;;;;;;;13.43;61.14;100682.28;5076560;28;20051;-70
2022/11/15 01:50:36;;;;;;;22.05;14.30;;;;;;;13.45;61.03;100677.63;5076528;28;20102;-72
2022/11/15 01:53:24;;;;;;;20.88;14.68;;;;;;;13.46;61.11;100677.47;5076189;28;20056;-72
2022/11/15 01:56:18;;;;;;;22.42;14.70;;;;;;;13.47;60.83;100671.09;5076753;28;20068;-71
2022/11/15 01:59:05;;;;;;;19.95;14.52;;;;;;;13.50;61.20;100675.38;5077186;28;20048;-71
2022/11/15 02:01:50;;;;;;;19.30;14.23;;;;;;;13.51;61.35;100674.38;5076732;28;20059;-71
2022/11/15 02:04:45;;;;;;;20.65;14.63;;;;;;;13.52;61.21;100668.84;5076659;28;20059;-71
2022/11/15 02:07:31;;;;;;;22.95;15.18;;;;;;;13.55;61.24;100667.75;5075671;28;20059;-70
2022/11/15 02:10:19;;;;;;;20.90;14.52;;;;;;;13.57;61.18;100663.06;5076167;28;20109;-71
2022/11/15 02:13:04;;;;;;;21.70;14.27;;;;;;;13.60;61.37;100665.50;5075633;28;20047;-71
2022/11/15 02:16:25;;;;;;;23.27;15.23;;;;;;;13.61;61.27;100664.50;5075683;28;20094;-71
2022/11/15 02:19:35;;;;;;;22.13;15.40;;;;;;;13.65;61.15;100661.41;5075327;28;20803;-71
2022/11/15 02:23:15;;;;;;;19.58;14.43;;;;;;;13.67;61.41;100656.75;5075297;28;20058;-72
2022/11/15 02:26:41;;;;;;;21.92;14.75;;;;;;;13.70;61.48;100661.00;5058490;28;20406;-70
2022/11/15 02:29:53;;;;;;;25.55;15.55;;;;;;;13.74;61.51;100648.97;5077000;28;20194;-71
2022/11/15 02:32:45;;;;;;;21.77;15.10;;;;;;;13.77;61.56;100647.84;5076617;28;20410;-71
2022/11/15 02:35:48;;;;;;;24.17;15.43;;;;;;;13.78;61.62;100644.16;5076220;28;20074;-71
2022/11/15 02:39:04;;;;;;;25.15;15.65;;;;;;;13.81;61.78;100642.03;5076576;28;20426;-71
2022/11/15 02:42:00;;;;;;;23.95;15.30;;;;;;;13.86;61.94;100636.22;5082869;27;20491;-71
2022/11/15 02:44:50;;;;;;;23.88;15.88;;;;;;;13.88;61.96;100637.81;5079445;28;20060;-71
2022/11/15 02:47:43;;;;;;;22.08;15.55;;;;;;;13.91;61.98;100637.53;5074792;27;20418;-71
2022/11/15 02:50:31;;;;;;;22.27;14.75;;;;;;;13.96;61.88;100639.81;5074616;28;20205;-71
2022/11/15 02:53:16;;;;;;;27.45;16.70;;;;;;;14.02;62.05;100644.69;5073631;28;20413;-72
2022/11/15 02:56:03;;;;;;;25.20;16.05;;;;;;;14.06;62.03;100647.97;5074045;28;20060;-71
2022/11/15 02:59:18;;;;;;;24.95;15.88;;;;;;;14.09;62.12;100639.59;5073702;28;20081;-72
2022/11/15 03:02:18;;;;;;;23.75;15.27;;;;;;;14.13;62.27;100633.81;5051886;28;20106;-72
2022/11/15 03:05:37;;;;;;;23.77;15.32;;;;;;;14.16;62.30;100629.97;5054561;28;20418;-70
2022/11/15 03:08:49;;;;;;;21.98;15.52;;;;;;;14.19;62.11;100621.59;5054784;28;20048;-71
2022/11/15 03:11:41;;;;;;;25.80;16.20;;;;;;;14.23;62.36;100625.75;5074558;28;20394;-71
2022/11/15 03:14:35;;;;;;;22.17;16.25;;;;;;;14.27;62.42;100616.38;5074655;28;20135;-70
2022/11/15 03:17:26;;;;;;;24.48;15.82;;;;;;;14.34;62.62;100617.53;5074398;28;20085;-71
2022/11/15 03:20:15;;;;;;;22.50;16.75;;;;;;;14.38;62.42;100610.00;5074503;28;20075;-72
2022/11/15 03:23:04;;;;;;;23.58;15.77;;;;;;;14.43;62.82;100613.16;5074389;28;20599;-70
2022/11/15 03:25:54;;;;;;;23.55;15.15;;;;;;;14.46;62.67;100616.44;5074339;28;20149;-70
2022/11/15 03:28:46;;;;;;;22.75;15.63;;;;;;;14.50;63.05;100615.16;5073600;27;20075;-71
2022/11/15 03:31:47;;;;;;;23.02;16.08;;;;;;;14.55;62.81;100617.44;5074302;28;20043;-70
2022/11/15 03:34:49;;;;;;;22.30;15.73;;;;;;;14.58;63.03;100618.03;5073999;28;20051;-70
2022/11/15 03:37:49;;;;;;;22.52;15.43;;;;;;;14.63;62.76;100620.31;5073876;28;20067;-69
2022/11/15 03:40:39;;;;;;;22.38;15.88;;;;;;;14.66;62.59;100622.72;5073894;28;20106;-70
2022/11/15 03:43:40;;;;;;;22.20;15.07;;;;;;;14.67;62.67;100616.31;5073688;28;20044;-70
2022/11/15 03:46:41;;;;;;;21.50;15.38;;;;;;;14.69;62.78;100622.44;5072878;28;20457;-71
2022/11/15 03:49:32;;;;;;;23.02;15.15;;;;;;;14.73;62.71;100631.13;5073924;28;20064;-72
2022/11/15 03:52:19;;;;;;;25.10;15.25;;;;;;;14.75;63.08;100621.03;5073375;27;20457;-71
2022/11/15 03:55:10;;;;;;;24.17;16.17;;;;;;;14.76;63.13;100620.03;5073417;28;20055;-71
2022/11/15 03:57:58;;;;;;;24.35;15.82;;;;;;;14.78;63.21;100610.78;5073620;28;20044;-71
2022/11/15 04:00:43;;;;;;;27.13;16.90;;;;;;;14.82;63.19;100622.16;5073960;28;20060;-70
2022/11/15 04:03:28;;;;;;;28.10;16.83;;;;;;;14.83;62.87;100622.03;5073142;28;20125;-70
2022/11/15 04:06:15;;;;;;;30.65;18.90;;;;;;;14.86;63.15;100624.47;5073626;28;20413;-70
2022/11/15 04:09:00;;;;;;;26.00;17.65;;;;;;;14.90;63.47;100623.19;5072843;27;20056;-70
2022/11/15 04:11:45;;;;;;;29.90;17.63;;;;;;;14.94;63.55;100618.34;5073253;28;20189;-71
2022/11/15 04:14:33;;;;;;;26.33;18.47;;;;;;;14.97;63.43;100623.47;5073519;28;20190;-71
2022/11/15 04:17:18;;;;;;;27.33;18.27;;;;;;;14.99;63.50;100621.47;5073025;28;20098;-72
2022/11/15 04:26:25;;;;;;;29.52;18.63;;;;;;;15.05;63.56;100618.22;5053185;28;20047;-70
2022/11/15 04:32:14;;;;;;;26.15;16.75;;;;;;;15.08;63.67;100620.63;5052699;28;20067;-70
2022/11/15 04:35:00;;;;;;;27.67;17.13;;;;;;;15.08;63.62;100619.78;5053118;28;20064;-70
2022/11/15 04:37:45;;;;;;;25.30;16.58;;;;;;;15.08;63.42;100627.88;5052515;28;20522;-70
2022/11/15 04:40:34;;;;;;;24.55;16.58;;;;;;;15.07;63.58;100621.63;5052796;28;20052;-70
2022/11/15 04:43:19;;;;;;;24.60;16.25;;;;;;;15.08;63.43;100630.59;5052746;28;20179;-70
2022/11/15 04:46:06;;;;;;;30.08;16.83;;;;;;;15.09;63.54;100622.34;5052791;28;20051;-70
2022/11/15 04:48:52;;;;;;;27.70;16.42;;;;;;;15.10;63.75;100621.34;5052630;28;20134;-69
2022/11/15 04:51:42;;;;;;;27.15;16.95;;;;;;;15.11;63.78;100622.19;5052786;28;20187;-70
2022/11/15 04:54:29;;;;;;;22.98;16.48;;;;;;;15.10;63.66;100615.94;5052970;28;20052;-70
2022/11/15 04:57:15;;;;;;;25.80;16.40;;;;;;;15.11;63.86;100625.75;5052579;28;20055;-70
2022/11/15 05:00:02;;;;;;;24.00;16.40;;;;;;;15.12;63.57;100619.34;5052758;28;20047;-70
2022/11/15 05:06:18;;;;;;;24.30;16.00;;;;;;;15.13;63.87;100606.66;5072653;28;20059;-70
2022/11/15 05:09:03;;;;;;;25.98;14.93;;;;;;;15.15;63.85;100612.78;5074388;28;20136;-70
2022/11/15 05:11:48;;;;;;;24.10;14.48;;;;;;;15.15;63.67;100615.50;5073296;27;20101;-70
2022/11/15 05:14:36;;;;;;;22.17;15.00;;;;;;;15.18;63.57;100615.19;5074044;28;20058;-71
2022/11/15 05:17:21;;;;;;;21.20;15.65;;;;;;;15.18;63.43;100607.09;5072491;28;20052;-70
2022/11/15 05:20:07;;;;;;;23.17;16.05;;;;;;;15.18;63.44;100616.06;5072395;28;20056;-70
2022/11/15 05:22:55;;;;;;;18.73;15.55;;;;;;;15.18;63.67;100617.91;5072128;28;20145;-70
2022/11/15 05:25:44;;;;;;;26.13;16.50;;;;;;;15.18;63.53;100612.50;5071922;28;20109;-70
2022/11/15 05:28:31;;;;;;;23.55;16.38;;;;;;;15.17;63.25;100624.31;5071993;27;20516;-70
2022/11/15 05:31:16;;;;;;;22.67;15.30;;;;;;;15.16;63.25;100612.66;5072419;28;20051;-70
2022/11/15 05:34:04;;;;;;;25.85;15.68;;;;;;;15.15;63.64;100616.34;5071961;28;20047;-70
2022/11/15 05:36:51;;;;;;;20.77;14.93;;;;;;;15.16;63.49;100615.34;5053028;28;20052;-70
2022/11/15 05:39:36;;;;;;;26.63;16.30;;;;;;;15.15;63.54;100604.69;5053857;28;20063;-69
2022/11/15 05:42:21;;;;;;;23.20;15.43;;;;;;;15.14;63.54;100605.69;5053362;28;20063;-69
2022/11/15 05:45:08;;;;;;;23.48;14.77;;;;;;;15.12;63.51;100599.56;5061074;28;20051;-69
2022/11/15 05:47:56;;;;;;;20.02;13.65;;;;;;;15.10;63.72;100601.56;5074111;28;20519;-69
2022/11/15 05:50:44;;;;;;;19.45;13.88;;;;;;;15.10;63.82;100602.41;5074103;28;20055;-69
2022/11/15 05:53:30;;;;;;;18.48;13.38;;;;;;;15.10;63.57;100604.25;5078797;28;20055;-70
2022/11/15 05:56:16;;;;;;;20.50;14.00;;;;;;;15.11;63.85;100597.84;5075419;27;20056;-69
2022/11/15 05:59:02;;;;;;;21.70;14.23;;;;;;;15.12;63.42;100597.69;5072117;28;20051;-70
2022/11/15 06:01:47;;;;;;;;;;;;;;;15.15;63.99;100604.69;5072096;28;20514;-68
2022/11/15 06:04:37;;;;;;;21.17;13.98;;;;;;;15.18;63.74;100607.94;5071227;28;19931;-69
2022/11/15 06:07:22;;;;;;;22.58;14.25;;;;;;;15.18;63.71;100621.47;5071874;28;20449;-69
2022/11/15 06:10:08;;;;;;;21.75;15.35;;;;;;;15.16;63.77;100628.03;5073599;28;20055;-69
2022/11/15 06:13:00;;;;;;;;;;;;;;;15.14;63.53;100620.06;5075628;28;20764;-69
2022/11/15 06:15:49;;;;;;;20.85;13.73;;;;;;;15.17;63.66;100618.91;5075374;28;19926;-69
2022/11/15 06:18:36;;;;;;;19.85;14.45;;;;;;;15.16;63.66;100617.19;5075253;28;20607;-69
2022/11/15 06:21:21;;;;;;;18.13;13.35;;;;;;;15.14;63.51;100616.50;5074777;27;20182;-69
2022/11/15 06:24:07;;;;;;;20.48;13.77;;;;;;;15.13;64.04;100610.22;5074932;28;20102;-70
2022/11/15 06:26:54;;;;;;;21.02;12.90;;;;;;;15.13;64.06;100618.34;5075118;28;20193;-70
2022/11/15 06:29:39;;;;;;;20.55;13.95;;;;;;;15.14;63.84;100614.63;5075247;28;20094;-70
2022/11/15 06:32:24;;;;;;;18.63;12.37;;;;;;;15.17;64.00;100617.06;5075098;28;20055;-69
2022/11/15 06:35:08;;;;;;;18.55;13.02;;;;;;;15.18;64.07;100629.59;5075147;28;20141;-69
2022/11/15 06:37:54;;;;;;;19.17;12.45;;;;;;;15.19;63.91;100625.88;5075012;28;20506;-70
2022/11/15 06:40:39;;;;;;;19.00;12.27;;;;;;;15.19;63.91;100628.59;5074977;28;20150;-70
2022/11/15 06:43:24;;;;;;;19.75;12.23;;;;;;;15.21;63.76;100625.75;5054865;28;20138;-70
2022/11/15 06:46:11;;;;;;;21.90;13.27;;;;;;;15.22;63.90;100625.59;5054659;28;20549;-70
2022/11/15 06:48:56;;;;;;;21.67;13.38;;;;;;;15.22;64.21;100635.56;5054894;28;20286;-69
2022/11/15 06:51:41;;;;;;;16.23;12.00;;;;;;;15.22;63.94;100640.97;5062650;28;20052;-69
2022/11/15 06:54:30;;;;;;;22.00;13.40;;;;;;;15.22;64.04;100639.13;5074779;28;20094;-69
2022/11/15 06:57:15;;;;;;;15.90;11.70;;;;;;;15.21;64.06;100648.22;5075136;28;20048;-73
2022/11/15 07:00:00;;;;;;;18.60;12.15;;;;;;;15.22;63.78;100649.09;5075341;28;20047;-69
2022/11/15 07:02:46;;;;;;;16.63;11.05;;;;;;;15.22;64.08;100655.34;5075781;28;20109;-69
2022/11/15 07:05:35;;;;;;;16.13;11.52;;;;;;;15.24;64.25;100660.63;5076007;28;20506;-69
2022/11/15 07:08:22;;;;;;;15.82;10.15;;;;;;;15.24;63.94;100653.34;5076300;28;20127;-69
2022/11/15 07:11:08;;;;;;;15.13;10.25;;;;;;;15.25;63.77;100654.22;5076280;27;20051;-68
2022/11/15 07:13:53;;;;;;;16.40;10.13;;;;;;;15.25;64.28;100652.34;5075929;28;20062;-69
2022/11/15 07:16:41;;;;;;;17.23;9.90;;;;;;;15.25;64.05;100654.22;5080579;28;20056;-68
2022/11/15 07:19:26;;;;;;;15.40;9.75;;;;;;;15.26;63.94;100655.91;5079831;27;20136;-69
2022/11/15 07:22:11;;;;;;;14.48;9.63;;;;;;;15.25;63.71;100652.34;5074484;28;20102;-69
2022/11/15 07:24:57;;;;;;;14.25;9.40;;;;;;;15.25;64.15;100654.22;5074443;28;20059;-68
2022/11/15 07:27:42;;;;;;;;;;;;;;;15.24;63.99;100658.78;5074290;28;20146;-68
2022/11/15 07:30:27;;;;;;;17.17;9.70;;;;;;;15.26;63.60;100655.91;5073347;28;19927;-68
2022/11/15 07:33:12;;;;;;;16.05;9.45;;;;;;;15.23;64.02;100665.19;5073506;28;20048;-69
2022/11/15 07:36:04;;;;;;;11.35;8.93;;;;;;;15.21;63.89;100661.75;5073156;28;20126;-69
2022/11/15 07:38:49;;;;;;;17.15;9.40;;;;;;;15.20;64.08;100670.03;5073522;28;20063;-68
2022/11/15 07:41:34;;;;;;;12.85;9.10;;;;;;;15.17;63.80;100673.00;5053108;28;20056;-69
2022/11/15 07:44:29;;;;;;;12.65;9.95;;;;;;;15.18;64.10;100675.56;5053471;28;20064;-69
2022/11/15 07:47:14;;;;;;;14.60;9.93;;;;;;;15.19;64.22;100668.31;5053292;28;20056;-68
2022/11/15 07:49:59;;;;;;;12.93;9.02;;;;;;;15.19;63.91;100674.56;5062149;28;20090;-68
2022/11/15 07:52:44;;;;;;;15.47;10.27;;;;;;;15.21;63.73;100671.72;5073048;28;20520;-68
2022/11/15 07:55:33;;;;;;;14.30;10.90;;;;;;;15.21;63.97;100666.31;5073062;28;20480;-69
2022/11/15 07:58:19;;;;;;;13.85;10.30;;;;;;;15.21;64.01;100669.88;5072961;28;20450;-68
2022/11/15 08:01:09;;;;;;;14.70;10.60;;;;;;;15.23;64.06;100669.72;5072302;27;20060;-68
2022/11/15 08:03:54;;;;;;;19.10;10.13;;;;;;;15.23;64.12;100667.88;5072375;28;20097;-68
2022/11/15 08:06:41;;;;;;;13.57;10.45;;;;;;;15.23;64.31;100669.72;5072650;28;20407;-68
2022/11/15 08:09:26;;;;;;;12.90;9.77;;;;;;;15.23;63.86;100669.72;5071886;28;20044;-69
2022/11/15 08:12:11;;;;;;;19.70;9.82;;;;;;;15.19;64.21;100666.47;5072316;28;20048;-69
2022/11/15 08:14:57;;;;;;;12.43;9.40;;;;;;;15.18;64.03;100663.91;5072409;28;20067;-68
2022/11/15 08:17:42;;;;;;;13.90;8.57;;;;;;;15.16;64.05;100658.63;5072419;28;20066;-68
2022/11/15 08:20:32;;;;;;;14.23;9.15;;;;;;;15.15;63.77;100658.78;5072259;28;20322;-68
2022/11/15 08:23:17;;;;;;;14.38;8.48;;;;;;;15.13;64.09;100656.22;5052168;28;20163;-68
2022/11/15 08:26:04;;;;;;;11.43;8.13;;;;;;;15.11;64.14;100669.03;5052155;28;20047;-68
2022/11/15 08:28:49;;;;;;;13.77;7.50;;;;;;;15.11;64.17;100669.03;5067849;28;20595;-68
2022/11/15 08:31:36;;;;;;;10.82;7.55;;;;;;;15.09;64.17;100671.00;5071450;28;20163;-68
2022/11/15 08:34:25;;;;;;;10.85;7.90;;;;;;;15.09;64.31;100664.75;5071728;28;20433;-68
2022/11/15 08:37:10;;;;;;;15.80;7.93;;;;;;;15.11;64.03;100669.03;5072206;28;20055;-67
2022/11/15 08:39:55;;;;;;;15.63;7.80;;;;;;;15.10;64.20;100670.03;5072859;28;20579;-68
2022/11/15 08:42:40;;;;;;;13.77;7.32;;;;;;;15.11;63.88;100670.88;5071575;28;20560;-69
2022/11/15 08:45:30;;;;;;;11.38;7.13;;;;;;;15.09;63.91;100670.16;5071213;28;20059;-68
2022/11/15 08:48:15;;;;;;;12.30;7.63;;;;;;;15.09;64.25;100667.47;5071535;28;20557;-68
2022/11/15 08:51:00;;;;;;;10.80;7.50;;;;;;;15.10;64.01;100671.88;5070541;27;20536;-68
2022/11/15 08:53:45;;;;;;;12.55;7.53;;;;;;;15.11;64.32;100670.88;5071441;28;20135;-68
2022/11/15 08:56:31;;;;;;;9.98;7.40;;;;;;;15.12;63.88;100664.47;5070363;28;20267;-68
2022/11/15 08:59:16;;;;;;;11.30;7.70;;;;;;;15.11;63.89;100647.38;5069704;28;20048;-68
2022/11/15 09:02:01;;;;;;;14.70;7.40;;;;;;;15.14;63.83;100655.22;5069252;28;20067;-68
2022/11/15 09:04:47;;;;;;;9.40;7.07;;;;;;;15.14;64.12;100652.50;5069885;28;20055;-68
2022/11/15 09:07:33;;;;;;;9.70;6.80;;;;;;;15.15;64.18;100643.41;5070113;28;20201;-68
2022/11/15 09:10:18;;;;;;;9.40;6.90;;;;;;;15.14;63.86;100644.41;5070395;28;20415;-68
2022/11/15 09:13:03;;;;;;;10.38;7.38;;;;;;;15.15;63.97;100642.53;5070500;28;20070;-68
2022/11/15 09:15:48;;;;;;;11.63;6.57;;;;;;;15.17;64.15;100648.66;5071213;28;20055;-68
2022/11/15 09:18:34;;;;;;;8.55;6.53;;;;;;;15.22;63.97;100644.53;5071474;28;20512;-68
2022/11/15 09:21:20;;;;;;;9.75;6.75;;;;;;;15.26;64.09;100642.38;5070564;27;20518;-68
2022/11/15 09:24:05;;;;;;;8.63;6.30;;;;;;;15.31;64.03;100641.97;5071109;28;20083;-68
2022/11/15 09:26:51;;;;;;;12.35;7.07;;;;;;;15.35;64.34;100633.41;5071773;27;20130;-80
2022/11/15 09:29:36;;;;;;;7.68;5.35;;;;;;;15.38;64.10;100632.25;5072966;28;20056;-69
2022/11/15 09:32:23;;;;;;;7.40;4.50;;;;;;;15.44;63.93;100624.41;5072664;28;20126;-69
2022/11/15 09:35:12;;;;;;;6.55;4.70;;;;;;;15.51;64.06;100616.56;5073152;28;20102;-71
2022/11/15 09:37:57;;;;;;;7.97;4.72;;;;;;;15.60;64.08;100613.00;5073041;28;20115;-70
2022/11/15 09:40:43;;;;;;;6.28;4.05;;;;;;;15.68;63.99;100599.63;5073196;28;20533;-70
2022/11/15 09:43:55;;;;;;;4.60;3.72;;;;;;;15.77;63.65;100600.59;5073209;28;20055;-70
2022/11/15 09:47:18;;;;;;;6.45;3.92;;;;;;;15.82;63.59;100599.16;5076971;28;20052;-70
2022/11/15 09:50:20;;;;;;;5.57;3.28;;;;;;;15.88;63.71;100603.97;5076889;28;20106;-70
2022/11/15 09:52:46;;;;;;;3.05;2.60;;;;;;;15.95;63.20;100598.81;5076989;28;20040;-70
2022/11/15 09:55:21;;;;;;;3.70;2.55;;;;;;;16.00;63.18;100601.91;5080537;28;20502;-70
2022/11/15 09:57:56;;;;;;;5.27;3.20;;;;;;;16.08;63.06;100603.88;5078217;28;20395;-70
2022/11/15 10:00:29;;;;;;;5.53;3.00;;;;;;;16.16;62.83;100596.69;5075866;28;20052;-69
2022/11/15 10:03:23;;;;;;;4.18;2.60;;;;;;;16.25;62.59;100589.50;5074879;28;20068;-69
2022/11/15 10:05:57;;;;;;;3.10;2.63;;;;;;;16.34;62.27;100594.03;5075665;28;20098;-70
2022/11/15 10:08:26;;;;;;;2.75;2.42;;;;;;;16.42;62.45;100593.28;5075630;28;20051;-70
2022/11/15 10:10:59;;;;;;;5.03;2.42;;;;;;;16.50;61.92;100583.38;5075376;27;20503;-69
2022/11/15 10:13:49;;;;;;;3.15;2.25;;;;;;;16.61;61.70;100585.03;5075240;28;20120;-69
2022/11/15 10:16:28;;;;;;;3.42;2.17;;;;;;;16.73;61.82;100585.69;5075949;28;20131;-68
2022/11/15 10:19:06;;;;;;;3.58;1.95;;;;;;;16.79;61.45;100582.34;5075455;27;20119;-69
2022/11/15 10:21:59;;;;;;;3.28;1.90;;;;;;;16.84;61.17;100572.72;5075209;28;20066;-69
2022/11/15 10:24:42;;;;;;;3.40;2.13;;;;;;;16.91;60.76;100580.25;5067271;28;20533;-69
2022/11/15 10:27:14;;;;;;;2.08;1.67;;;;;;;16.96;60.34;100578.75;5076268;28;20490;-68
2022/11/15 10:29:49;;;;;;;3.38;1.88;;;;;;;16.97;60.32;100557.91;5075286;28;20041;-68
2022/11/15 10:32:19;;;;;;;6.97;2.70;;;;;;;16.97;59.47;100566.91;5074802;28;20044;-68
2022/11/15 10:34:49;;;;;;;7.38;2.08;;;;;;;16.97;59.62;100558.75;5075117;28;20502;-68
2022/11/15 10:37:29;;;;;;;4.03;2.00;;;;;;;16.99;59.50;100556.75;5075294;28;20090;-68
2022/11/15 10:40:16;;;;;;;4.07;1.60;;;;;;;17.02;58.82;100551.00;5075008;28;20044;-68
2022/11/15 10:42:42;;;;;;;3.70;1.90;;;;;;;17.05;58.73;100558.81;5074984;28;20093;-68
2022/11/15 10:45:31;;;;;;;4.72;1.48;;;;;;;17.11;58.85;100558.22;5074716;28;20055;-68
2022/11/15 10:48:12;;;;;;;3.88;2.05;;;;;;;17.16;58.11;100555.03;5075363;27;20052;-68
2022/11/15 10:50:45;;;;;;;3.92;1.70;;;;;;;17.15;57.87;100548.75;5075948;28;20119;-69
2022/11/15 10:53:32;;;;;;;2.85;1.65;;;;;;;17.13;57.47;100552.66;5074987;28;20036;-70
2022/11/15 10:56:06;;;;;;;3.85;1.95;;;;;;;17.07;57.25;100543.25;5075852;28;20044;-70
2022/11/15 10:58:41;;;;;;;5.70;1.88;;;;;;;17.07;57.44;100543.25;5076325;28;20061;-70
2022/11/15 11:01:20;;;;;;;5.03;1.70;;;;;;;17.10;57.63;100534.81;5076228;28;20490;-70
2022/11/15 11:04:04;;;;;;;5.72;1.70;;;;;;;17.11;57.06;100533.81;5075778;28;20032;-70
2022/11/15 11:06:49;;;;;;;6.75;1.60;;;;;;;17.10;57.08;100534.81;5080424;28;20109;-71
2022/11/15 11:09:42;;;;;;;3.63;1.77;;;;;;;17.07;57.26;100526.97;5075412;28;20079;-70
2022/11/15 11:12:12;;;;;;;3.63;1.90;;;;;;;17.11;56.96;100533.81;5051462;28;20053;-70
2022/11/15 11:14:40;;;;;;;3.60;1.60;;;;;;;17.11;57.16;100525.66;5063407;28;20094;-70
2022/11/15 11:17:48;;;;;;;5.97;1.70;;;;;;;17.11;56.58;100525.66;5073458;28;20064;-70
2022/11/15 11:20:38;;;;;;;5.82;2.13;;;;;;;17.15;56.88;100518.91;5049815;28;20048;-70
2022/11/15 11:23:23;;;;;;;5.22;1.77;;;;;;;17.19;56.80;100510.44;5072898;28;20044;-69
2022/11/15 11:26:16;;;;;;;4.33;1.53;;;;;;;17.24;56.70;100511.66;5073517;28;20082;-69
2022/11/15 11:28:53;;;;;;;5.30;1.80;;;;;;;17.29;56.13;100514.75;5074496;28;20098;-69
2022/11/15 11:31:36;;;;;;;2.35;1.30;;;;;;;17.32;56.02;100517.16;5073469;28;20090;-69
2022/11/15 11:34:38;;;;;;;2.60;1.60;;;;;;;17.40;55.80;100508.19;5074401;28;20048;-69
2022/11/15 11:37:17;;;;;;;3.25;1.23;;;;;;;17.48;56.04;100494.66;5069603;28;20640;-69
2022/11/15 11:40:08;;;;;;;4.50;1.70;;;;;;;17.53;55.41;100495.03;5074391;28;20040;-71
2022/11/15 11:42:57;;;;;;;5.38;2.22;;;;;;;17.60;55.24;100493.38;5074442;28;20459;-69
2022/11/15 11:45:34;;;;;;;3.05;1.40;;;;;;;17.54;55.29;100485.03;5074258;28;20479;-69
2022/11/15 11:48:39;;;;;;;4.55;1.55;;;;;;;17.50;54.71;100473.63;5074206;28;20055;-69
2022/11/15 11:51:15;;;;;;;2.20;1.47;;;;;;;17.43;54.83;100469.88;5074019;28;20113;-70
2022/11/15 11:53:55;;;;;;;4.70;1.60;;;;;;;17.31;54.15;100455.72;5073703;28;20040;-70
2022/11/15 11:56:36;;;;;;;3.08;1.42;;;;;;;17.21;54.22;100452.28;5073929;28;20090;-70
2022/11/15 11:59:23;;;;;;;4.72;1.85;;;;;;;17.13;54.04;100455.81;5073910;28;20406;-69
2022/11/15 12:01:49;;;;;;;3.10;1.63;;;;;;;17.09;54.31;100445.41;5073881;28;20040;-69
2022/11/15 12:04:40;;;;;;;3.63;1.40;;;;;;;17.03;54.17;100438.75;5074190;28;20048;-70
2022/11/15 12:07:19;;;;;;;4.85;1.75;;;;;;;17.07;54.21;100439.28;5073679;28;20048;-69
2022/11/15 12:09:56;;;;;;;4.25;1.33;;;;;;;17.10;53.65;100439.00;5074049;28;20044;-69
2022/11/15 12:12:38;;;;;;;3.65;1.83;;;;;;;17.14;54.02;100435.81;5072645;28;20506;-69
2022/11/15 12:15:19;;;;;;;2.35;1.10;;;;;;;17.20;53.85;100426.16;5074308;28;20094;-69
2022/11/15 12:17:47;;;;;;;2.20;1.20;;;;;;;17.24;53.61;100418.56;5086237;28;20070;-70
2022/11/15 12:20:21;;;;;;;3.92;1.25;;;;;;;17.28;53.36;100414.50;5079788;28;20028;-70
2022/11/15 12:23:03;;;;;;;2.47;0.93;;;;;;;17.28;53.51;100414.50;5074327;28;20052;-70
2022/11/15 12:25:37;;;;;;;1.70;1.20;;;;;;;17.30;53.22;100401.63;5071625;28;20453;-70
2022/11/15 12:28:17;;;;;;;2.92;1.13;;;;;;;17.32;52.74;100397.72;5072451;28;20407;-70
2022/11/15 12:31:06;;;;;;;2.55;1.20;;;;;;;17.33;52.81;100387.72;5073183;28;20093;-70
2022/11/15 12:33:43;;;;;;;4.25;1.00;;;;;;;17.36;52.52;100390.94;5073068;28;20086;-69
2022/11/15 12:36:22;;;;;;;4.35;1.25;;;;;;;17.40;52.54;100384.19;5073355;28;20040;-70
2022/11/15 12:38:54;;;;;;;2.55;1.10;;;;;;;17.44;52.69;100377.41;5072871;27;20522;-70
2022/11/15 12:41:28;;;;;;;3.65;0.88;;;;;;;17.50;52.51;100377.75;5073244;28;20040;-70
2022/11/15 12:43:56;;;;;;;3.53;1.15;;;;;;;17.53;52.19;100374.72;5072861;28;20180;-70
2022/11/15 12:46:28;;;;;;;3.30;1.20;;;;;;;17.55;52.18;100370.81;5072993;28;20048;-70
2022/11/15 12:48:58;;;;;;;3.42;1.08;;;;;;;17.57;52.03;100368.78;5073248;27;20048;-70
2022/11/15 12:51:43;;;;;;;5.85;1.92;;;;;;;17.60;51.96;100357.59;5072925;28;20043;-70
2022/11/15 12:54:22;;;;;;;4.43;1.80;;;;;;;17.68;51.59;100367.66;5072856;28;20037;-70
2022/11/15 12:57:32;;;;;;;3.58;1.05;;;;;;;17.69;51.61;100358.50;5072993;28;20033;-69
2022/11/15 13:00:12;;;;;;;4.95;1.10;;;;;;;17.69;51.81;100348.47;5062657;28;20449;-70